createdAt,value
2022-10-08T00:01:40.968Z,46.13
2022-10-08T00:04:07.745Z,45.99
2022-10-08T00:06:34.368Z,45.97
2022-10-08T00:09:03.567Z,46.06
2022-10-08T00:11:32.965Z,46.24
2022-10-08T00:14:01.014Z,46.26
2022-10-08T00:16:30.684Z,46.15
2022-10-08T00:19:03.830Z,46.21
2022-10-08T00:21:33.158Z,46.22
2022-10-08T00:24:01.560Z,45.99
2022-10-08T00:26:30.175Z,46.21
2022-10-08T00:28:59.034Z,46.56
2022-10-08T00:31:36.882Z,46.30
2022-10-08T00:34:07.096Z,46.15
2022-10-08T00:36:37.202Z,46.21
2022-10-08T00:39:15.196Z,46.32
2022-10-08T00:41:42.943Z,46.37
2022-10-08T00:44:50.857Z,46.19
2022-10-08T00:47:24.657Z,46.09
2022-10-08T00:49:54.776Z,46.41
2022-10-08T00:52:21.805Z,46.26
2022-10-08T00:54:51.410Z,46.31
2022-10-08T00:57:19.235Z,46.78
2022-10-08T00:59:45.827Z,46.27
2022-10-08T01:02:13.574Z,46.67
2022-10-08T01:04:41.453Z,46.40
2022-10-08T01:07:19.789Z,46.67
2022-10-08T01:10:21.280Z,46.38
2022-10-08T01:12:53.909Z,46.20
2022-10-08T01:15:32.295Z,46.39
2022-10-08T01:18:16.752Z,46.65
2022-10-08T01:21:03.143Z,46.63
2022-10-08T01:23:44.817Z,46.37
2022-10-08T01:26:32.036Z,46.26
2022-10-08T01:29:25.983Z,46.72
2022-10-08T01:32:02.035Z,46.77
2022-10-08T01:34:44.791Z,46.56
2022-10-08T01:37:21.192Z,46.60
2022-10-08T01:39:49.228Z,46.67
2022-10-08T01:42:16.577Z,46.59
2022-10-08T01:44:51.793Z,46.55
2022-10-08T01:47:23.393Z,46.66
2022-10-08T01:49:59.010Z,46.45
2022-10-08T01:52:29.068Z,46.65
2022-10-08T01:54:59.401Z,46.47
2022-10-08T01:57:26.846Z,46.36
2022-10-08T02:00:06.250Z,46.72
2022-10-08T02:02:32.933Z,46.95
2022-10-08T02:04:59.494Z,46.85
2022-10-08T02:07:31.669Z,46.67
2022-10-08T02:10:30.534Z,46.79
2022-10-08T02:12:57.314Z,46.57
2022-10-08T02:15:56.952Z,46.64
2022-10-08T02:18:33.084Z,46.89
2022-10-08T02:21:03.567Z,46.67
2022-10-08T02:23:33.664Z,46.95
2022-10-08T02:26:05.712Z,46.95
2022-10-08T02:28:45.716Z,47.10
2022-10-08T02:31:32.202Z,46.76
2022-10-08T02:34:07.224Z,46.77
2022-10-08T02:36:42.304Z,46.95
2022-10-08T02:39:10.443Z,47.08
2022-10-08T02:41:43.033Z,46.81
2022-10-08T02:44:14.489Z,46.93
2022-10-08T02:46:42.518Z,46.75
2022-10-08T02:49:18.444Z,46.78
2022-10-08T02:51:50.201Z,47.32
2022-10-08T02:54:19.278Z,46.86
2022-10-08T02:56:48.220Z,46.99
2022-10-08T02:59:15.121Z,47.10
2022-10-08T03:01:49.381Z,46.98
2022-10-08T03:04:22.006Z,47.06
2022-10-08T03:06:49.042Z,46.92
2022-10-08T03:09:16.259Z,47.21
2022-10-08T03:11:43.222Z,47.27
2022-10-08T03:14:12.434Z,46.92
2022-10-08T03:16:44.134Z,47.04
2022-10-08T03:19:13.950Z,47.17
2022-10-08T03:21:42.447Z,47.21
2022-10-08T03:24:10.589Z,47.43
2022-10-08T03:26:37.640Z,47.08
2022-10-08T03:29:04.668Z,47.04
2022-10-08T03:31:31.397Z,47.16
2022-10-08T03:33:57.987Z,47.42
2022-10-08T03:36:25.585Z,47.14
2022-10-08T03:38:52.537Z,47.08
2022-10-08T03:41:19.160Z,47.10
2022-10-08T03:43:45.933Z,47.02
2022-10-08T03:46:14.098Z,47.18
2022-10-08T03:48:40.829Z,47.48
2022-10-08T03:51:11.112Z,47.57
2022-10-08T03:53:38.959Z,47.29
2022-10-08T03:56:08.909Z,47.40
2022-10-08T03:58:35.734Z,47.38
2022-10-08T04:01:04.882Z,47.40
2022-10-08T04:03:32.320Z,47.50
2022-10-08T04:05:59.294Z,47.42
2022-10-08T04:08:26.187Z,47.50
2022-10-08T04:10:53.236Z,47.37
2022-10-08T04:13:19.957Z,47.58
2022-10-08T04:15:50.827Z,47.34
2022-10-08T04:18:17.866Z,47.37
2022-10-08T04:20:44.597Z,47.71
2022-10-08T04:23:12.203Z,47.31
2022-10-08T04:25:38.810Z,47.55
2022-10-08T04:28:06.230Z,47.37
2022-10-08T04:30:32.933Z,47.66
2022-10-08T04:32:59.501Z,47.90
2022-10-08T04:35:26.143Z,47.58
2022-10-08T04:37:52.746Z,47.68
2022-10-08T04:40:19.318Z,47.63
2022-10-08T04:42:50.620Z,47.69
2022-10-08T04:45:17.183Z,47.45
2022-10-08T04:47:43.947Z,47.71
2022-10-08T04:50:10.505Z,47.67
2022-10-08T04:52:37.075Z,47.42
2022-10-08T04:55:03.747Z,47.63
2022-10-08T04:57:31.543Z,47.69
2022-10-08T05:00:16.969Z,47.53
2022-10-08T05:02:45.036Z,47.60
2022-10-08T05:05:11.901Z,47.71
2022-10-08T05:07:38.444Z,47.55
2022-10-08T05:10:05.288Z,47.72
2022-10-08T05:12:31.853Z,47.48
2022-10-08T05:14:58.408Z,47.58
2022-10-08T05:17:25.006Z,47.48
2022-10-08T05:19:51.546Z,47.67
2022-10-08T05:22:18.165Z,47.48
2022-10-08T05:24:44.713Z,47.52
2022-10-08T05:27:11.237Z,47.65
2022-10-08T05:29:37.909Z,47.56
2022-10-08T05:32:04.439Z,48.13
2022-10-08T05:34:30.971Z,47.81
2022-10-08T05:36:57.521Z,48.01
2022-10-08T05:39:24.094Z,47.74
2022-10-08T05:41:50.693Z,47.73
2022-10-08T05:44:17.383Z,47.86
2022-10-08T05:46:44.237Z,47.88
2022-10-08T05:49:17.790Z,47.97
2022-10-08T05:51:44.195Z,48.19
2022-10-08T05:54:10.837Z,48.14
2022-10-08T05:56:37.779Z,48.09
2022-10-08T05:59:04.429Z,47.95
2022-10-08T06:01:32.538Z,48.05
2022-10-08T06:04:06.981Z,47.68
2022-10-08T06:06:35.967Z,47.62
2022-10-08T06:09:02.594Z,47.58
2022-10-08T06:11:31.014Z,47.71
2022-10-08T06:13:58.942Z,47.87
2022-10-08T06:16:26.368Z,47.75
2022-10-08T06:18:53.110Z,47.63
2022-10-08T06:21:24.261Z,47.53
2022-10-08T06:24:02.064Z,47.47
2022-10-08T06:26:35.437Z,47.91
2022-10-08T06:29:03.002Z,47.79
2022-10-08T06:31:29.654Z,47.53
2022-10-08T06:33:57.730Z,47.45
2022-10-08T06:36:26.275Z,47.61
2022-10-08T06:38:54.411Z,48.41
2022-10-08T06:41:21.621Z,49.40
2022-10-08T06:43:48.349Z,48.88
2022-10-08T06:46:15.033Z,49.06
2022-10-08T06:48:41.724Z,48.84
2022-10-08T06:51:14.673Z,48.73
2022-10-08T06:53:42.393Z,48.73
2022-10-08T06:56:14.515Z,48.69
2022-10-08T06:58:41.980Z,48.80
2022-10-08T07:01:16.926Z,48.60
2022-10-08T07:03:43.874Z,48.67
2022-10-08T07:06:12.221Z,48.81
2022-10-08T07:08:39.182Z,48.42
2022-10-08T07:11:10.485Z,48.33
2022-10-08T07:13:37.742Z,48.44
2022-10-08T07:16:21.288Z,48.20
2022-10-08T07:18:49.715Z,49.88
2022-10-08T07:21:17.393Z,50.10
2022-10-08T07:23:44.159Z,51.16
2022-10-08T07:26:13.487Z,51.15
2022-10-08T07:28:43.067Z,51.10
2022-10-08T07:31:21.707Z,51.45
2022-10-08T07:33:48.320Z,51.37
2022-10-08T07:36:17.645Z,51.81
2022-10-08T07:38:44.311Z,51.58
2022-10-08T07:41:12.085Z,51.46
2022-10-08T07:43:42.908Z,50.89
2022-10-08T07:46:11.525Z,50.64
2022-10-08T07:48:39.164Z,50.22
2022-10-08T07:51:12.375Z,49.91
2022-10-08T07:53:39.802Z,49.25
2022-10-08T07:56:07.084Z,49.54
2022-10-08T07:58:34.117Z,49.04
2022-10-08T08:01:03.459Z,49.17
2022-10-08T08:03:30.262Z,48.51
2022-10-08T08:06:14.693Z,48.45
2022-10-08T08:08:42.894Z,48.12
2022-10-08T08:11:11.621Z,48.97
2022-10-08T08:13:39.618Z,49.34
2022-10-08T08:16:26.412Z,49.32
2022-10-08T08:18:56.568Z,49.10
2022-10-08T08:21:27.033Z,48.79
2022-10-08T08:23:55.533Z,48.72
2022-10-08T08:26:28.268Z,48.76
2022-10-08T08:28:59.865Z,48.97
2022-10-08T08:31:35.659Z,48.55
2022-10-08T08:34:07.124Z,48.59
2022-10-08T08:36:36.160Z,48.80
2022-10-08T08:39:04.057Z,48.38
2022-10-08T08:42:21.691Z,48.20
2022-10-08T08:45:02.150Z,48.00
2022-10-08T08:47:40.620Z,48.14
2022-10-08T08:50:31.238Z,48.18
2022-10-08T08:52:57.800Z,48.30
2022-10-08T08:55:37.500Z,47.90
2022-10-08T08:58:36.069Z,47.86
2022-10-08T09:01:08.505Z,47.73
2022-10-08T09:03:47.705Z,48.11
2022-10-08T09:06:16.115Z,47.84
2022-10-08T09:08:51.352Z,47.44
2022-10-08T09:11:20.495Z,47.64
2022-10-08T09:14:14.741Z,47.47
2022-10-08T09:16:41.595Z,46.77
2022-10-08T09:19:09.118Z,47.05
2022-10-08T09:21:35.777Z,47.02
2022-10-08T09:24:02.496Z,46.91
2022-10-08T09:26:33.879Z,46.87
2022-10-08T09:29:02.058Z,46.87
2022-10-08T09:34:15.842Z,46.45
2022-10-08T09:37:00.719Z,46.55
2022-10-08T09:39:30.209Z,46.76
2022-10-08T09:42:13.976Z,46.57
2022-10-08T09:44:43.795Z,47.13
2022-10-08T09:47:15.686Z,46.81
2022-10-08T09:49:43.095Z,47.19
2022-10-08T09:52:16.902Z,47.09
2022-10-08T09:54:50.844Z,46.93
2022-10-08T09:57:17.649Z,46.57
2022-10-08T09:59:59.184Z,46.75
2022-10-08T10:02:35.280Z,47.06
2022-10-08T10:05:04.956Z,46.82
2022-10-08T10:07:44.615Z,46.94
2022-10-08T10:10:20.547Z,47.12
2022-10-08T10:12:50.984Z,46.98
2022-10-08T10:15:34.509Z,46.92
2022-10-08T10:18:38.997Z,46.80
2022-10-08T10:21:06.910Z,46.55
2022-10-08T10:23:42.596Z,46.80
2022-10-08T10:26:11.959Z,46.98
2022-10-08T10:28:44.470Z,46.78
2022-10-08T10:31:15.125Z,46.78
2022-10-08T10:34:07.529Z,46.52
2022-10-08T10:36:43.193Z,46.59
2022-10-08T10:39:28.267Z,46.19
2022-10-08T10:42:14.262Z,46.24
2022-10-08T10:44:50.094Z,46.03
2022-10-08T10:47:19.784Z,45.98
2022-10-08T10:49:46.382Z,45.94
2022-10-08T10:52:15.520Z,45.64
2022-10-08T10:54:56.984Z,45.76
2022-10-08T10:57:53.427Z,45.86
2022-10-08T11:00:23.488Z,45.47
2022-10-08T11:02:52.403Z,45.85
2022-10-08T11:05:37.418Z,45.56
2022-10-08T11:08:03.897Z,45.54
2022-10-08T11:10:40.237Z,46.01
2022-10-08T11:13:24.754Z,46.27
2022-10-08T11:16:06.841Z,45.88
2022-10-08T11:18:42.497Z,45.54
2022-10-08T11:21:38.327Z,45.59
2022-10-08T11:24:32.807Z,45.52
2022-10-08T11:27:12.910Z,45.50
2022-10-08T11:29:51.475Z,45.92
2022-10-08T11:32:19.248Z,46.03
2022-10-08T11:34:49.254Z,46.11
2022-10-08T11:37:21.782Z,46.24
2022-10-08T11:39:48.220Z,46.18
2022-10-08T11:42:40.278Z,46.23
2022-10-08T11:45:23.618Z,46.26
2022-10-08T11:47:51.884Z,46.13
2022-10-08T11:50:29.031Z,46.06
2022-10-08T11:52:58.838Z,46.16
2022-10-08T11:55:28.550Z,45.97
2022-10-08T11:58:09.347Z,45.78
2022-10-08T12:00:43.665Z,45.86
2022-10-08T12:03:28.330Z,45.69
2022-10-08T12:05:57.961Z,46.42
2022-10-08T12:08:56.624Z,46.09
2022-10-08T12:11:46.080Z,45.72
2022-10-08T12:14:12.774Z,46.02
2022-10-08T12:16:48.516Z,45.71
2022-10-08T12:19:36.597Z,45.69
2022-10-08T12:22:16.650Z,45.24
2022-10-08T12:24:49.662Z,45.33
2022-10-08T12:27:16.497Z,45.57
2022-10-08T12:30:08.550Z,45.43
2022-10-08T12:32:52.956Z,45.83
2022-10-08T12:35:22.329Z,45.73
2022-10-08T12:38:16.301Z,46.01
2022-10-08T12:40:48.246Z,45.48
2022-10-08T12:43:36.800Z,45.75
2022-10-08T12:46:21.187Z,46.04
2022-10-08T12:48:51.997Z,45.98
2022-10-08T12:51:41.823Z,45.97
2022-10-08T12:54:18.994Z,46.06
2022-10-08T12:56:46.137Z,46.74
2022-10-08T12:59:14.269Z,46.93
2022-10-08T13:01:43.047Z,46.78
2022-10-08T13:04:20.607Z,46.58
2022-10-08T13:06:48.342Z,46.34
2022-10-08T13:09:35.435Z,46.21
2022-10-08T13:12:04.135Z,46.91
2022-10-08T13:14:31.529Z,46.43
2022-10-08T13:16:58.193Z,46.98
2022-10-08T13:19:42.715Z,46.28
2022-10-08T13:22:25.958Z,46.69
2022-10-08T13:24:52.660Z,46.21
2022-10-08T13:27:29.474Z,46.50
2022-10-08T13:29:57.159Z,46.78
2022-10-08T13:32:29.946Z,47.04
2022-10-08T13:34:59.108Z,47.95
2022-10-08T13:37:34.908Z,47.64
2022-10-08T13:40:13.632Z,48.16
2022-10-08T13:42:44.833Z,47.71
2022-10-08T13:45:22.765Z,47.54
2022-10-08T13:47:50.205Z,47.13
2022-10-08T13:50:17.515Z,47.94
2022-10-08T13:52:53.714Z,47.52
2022-10-08T13:55:46.339Z,47.62
2022-10-08T13:58:14.544Z,47.05
2022-10-08T14:00:43.654Z,47.10
2022-10-08T14:03:10.420Z,47.17
2022-10-08T14:05:40.457Z,47.39
2022-10-08T14:08:28.323Z,47.50
2022-10-08T14:10:58.243Z,47.98
2022-10-08T14:13:25.297Z,47.61
2022-10-08T14:15:51.975Z,47.57
2022-10-08T14:18:18.663Z,47.69
2022-10-08T14:20:45.216Z,47.65
2022-10-08T14:23:14.729Z,47.85
2022-10-08T14:25:41.326Z,47.46
2022-10-08T14:28:07.953Z,47.27
2022-10-08T14:30:34.598Z,47.41
2022-10-08T14:33:01.215Z,47.28
2022-10-08T14:35:27.767Z,47.30
2022-10-08T14:37:54.462Z,47.80
2022-10-08T14:40:22.070Z,47.36
2022-10-08T14:42:49.224Z,47.56
2022-10-08T14:45:16.006Z,47.54
2022-10-08T14:47:42.585Z,47.65
2022-10-08T14:50:09.904Z,47.33
2022-10-08T14:52:40.510Z,47.34
2022-10-08T14:55:10.657Z,47.03
2022-10-08T14:57:37.258Z,47.15
2022-10-08T15:00:04.978Z,47.40
2022-10-08T15:02:31.754Z,47.24
2022-10-08T15:04:58.355Z,47.05
2022-10-08T15:07:24.929Z,47.02
2022-10-08T15:09:51.513Z,47.40
2022-10-08T15:12:18.046Z,47.11
2022-10-08T15:14:44.616Z,47.19
2022-10-08T15:17:11.169Z,47.19
2022-10-08T15:19:37.726Z,47.07
2022-10-08T15:22:04.327Z,46.81
2022-10-08T15:24:30.897Z,47.25
2022-10-08T15:26:57.540Z,47.26
2022-10-08T15:29:24.069Z,47.17
2022-10-08T15:31:51.299Z,47.50
2022-10-08T15:34:20.068Z,47.01
2022-10-08T15:36:47.014Z,46.79
2022-10-08T15:39:18.465Z,47.07
2022-10-08T15:41:47.241Z,46.78
2022-10-08T15:44:18.335Z,46.92
2022-10-08T15:46:49.805Z,46.55
2022-10-08T15:49:16.407Z,46.77
2022-10-08T15:51:42.964Z,46.58
2022-10-08T15:54:09.576Z,46.75
2022-10-08T15:56:36.163Z,46.72
2022-10-08T15:59:03.772Z,46.56
2022-10-08T16:01:31.185Z,46.47
2022-10-08T16:03:58.260Z,46.18
2022-10-08T16:06:27.332Z,46.55
2022-10-08T16:08:56.233Z,46.35
2022-10-08T16:11:24.374Z,46.51
2022-10-08T16:13:54.242Z,46.15
2022-10-08T16:16:21.386Z,46.14
2022-10-08T16:18:52.970Z,46.00
2022-10-08T16:21:21.250Z,45.89
2022-10-08T16:23:48.183Z,46.40
2022-10-08T16:26:20.470Z,46.24
2022-10-08T16:28:52.204Z,45.90
2022-10-08T16:31:19.145Z,46.48
2022-10-08T16:33:46.355Z,46.32
2022-10-08T16:36:14.493Z,45.90
2022-10-08T16:38:41.128Z,45.87
2022-10-08T16:41:12.133Z,45.60
2022-10-08T16:43:38.766Z,45.79
2022-10-08T16:46:05.467Z,45.90
2022-10-08T16:48:32.045Z,45.88
2022-10-08T16:51:02.413Z,45.94
2022-10-08T16:53:28.990Z,46.17
2022-10-08T16:55:55.530Z,46.28
2022-10-08T16:58:22.550Z,46.20
2022-10-08T17:00:49.108Z,46.25
2022-10-08T17:03:15.643Z,46.20
2022-10-08T17:05:42.195Z,46.23
2022-10-08T17:08:09.109Z,46.19
2022-10-08T17:10:35.645Z,46.49
2022-10-08T17:13:02.200Z,46.43
2022-10-08T17:15:29.186Z,46.46
2022-10-08T17:17:55.827Z,46.42
2022-10-08T17:20:22.415Z,46.16
2022-10-08T17:22:50.861Z,46.47
2022-10-08T17:25:17.601Z,46.19
2022-10-08T17:27:44.157Z,46.48
2022-10-08T17:30:12.293Z,46.19
2022-10-08T17:32:38.873Z,46.39
2022-10-08T17:35:06.244Z,46.28
2022-10-08T17:37:32.860Z,46.68
2022-10-08T17:39:59.404Z,46.44
2022-10-08T17:42:25.943Z,46.30
2022-10-08T17:44:52.543Z,46.28
2022-10-08T17:47:19.106Z,46.04
2022-10-08T17:49:45.683Z,46.24
2022-10-08T17:52:12.244Z,46.44
2022-10-08T17:54:38.794Z,46.26
2022-10-08T17:57:06.390Z,46.23
2022-10-08T17:59:33.124Z,46.16
2022-10-08T18:01:59.897Z,45.95
2022-10-08T18:04:26.480Z,45.98
2022-10-08T18:06:53.084Z,46.09
2022-10-08T18:09:20.887Z,46.23
2022-10-08T18:11:51.787Z,45.74
2022-10-08T18:14:18.700Z,46.07
2022-10-08T18:16:48.138Z,45.86
2022-10-08T18:19:15.235Z,45.97
2022-10-08T18:21:41.824Z,45.92
2022-10-08T18:24:08.419Z,45.92
2022-10-08T18:26:36.874Z,46.00
2022-10-08T18:29:09.261Z,46.31
2022-10-08T18:31:37.903Z,46.72
2022-10-08T18:34:09.673Z,46.55
2022-10-08T18:36:37.749Z,46.32
2022-10-08T18:39:07.099Z,46.11
2022-10-08T18:41:38.135Z,46.09
2022-10-08T18:44:06.380Z,46.61
2022-10-08T18:46:36.837Z,46.56
2022-10-08T18:49:04.390Z,46.70
2022-10-08T18:51:31.830Z,46.71
2022-10-08T18:53:59.592Z,46.70
2022-10-08T18:56:35.460Z,46.78
2022-10-08T18:59:05.025Z,46.82
2022-10-08T19:01:37.116Z,46.82
2022-10-08T19:04:05.925Z,46.63
2022-10-08T19:06:37.970Z,46.62
2022-10-08T19:09:05.553Z,46.17
2022-10-08T19:11:37.681Z,46.48
2022-10-08T19:14:08.704Z,46.45
2022-10-08T19:16:36.215Z,46.63
2022-10-08T19:19:06.727Z,46.32
2022-10-08T19:21:34.820Z,46.09
2022-10-08T19:24:02.130Z,46.27
2022-10-08T19:26:30.468Z,46.47
2022-10-08T19:28:57.570Z,46.11
2022-10-08T19:31:32.468Z,46.50
2022-10-08T19:34:04.202Z,46.21
2022-10-08T19:36:33.209Z,45.84
2022-10-08T19:39:04.837Z,46.04
2022-10-08T19:41:31.534Z,46.12
2022-10-08T19:43:58.606Z,46.39
2022-10-08T19:46:26.198Z,46.30
2022-10-08T19:48:58.345Z,46.19
2022-10-08T19:51:26.668Z,46.20
2022-10-08T19:53:53.561Z,46.13
2022-10-08T19:56:21.184Z,46.49
2022-10-08T19:58:49.841Z,46.19
2022-10-08T20:01:18.602Z,46.45
2022-10-08T20:03:45.523Z,46.54
2022-10-08T20:06:16.160Z,46.30
2022-10-08T20:08:44.994Z,46.47
2022-10-08T20:11:14.775Z,46.37
2022-10-08T20:13:42.501Z,46.38
2022-10-08T20:16:17.030Z,46.43
2022-10-08T20:18:52.217Z,46.76
2022-10-08T20:21:19.598Z,46.48
2022-10-08T20:23:46.381Z,46.59
2022-10-08T20:26:16.959Z,46.91
2022-10-08T20:28:44.805Z,46.52
2022-10-08T20:31:22.810Z,46.79
2022-10-08T20:33:56.472Z,47.06
2022-10-08T20:36:23.838Z,46.98
2022-10-08T20:38:50.943Z,46.72
2022-10-08T20:41:17.903Z,46.71
2022-10-08T20:43:44.469Z,46.52
2022-10-08T20:46:13.443Z,46.50
2022-10-08T20:48:42.331Z,46.71
2022-10-08T20:51:14.049Z,46.30
2022-10-08T20:53:49.696Z,46.51
2022-10-08T20:56:17.550Z,46.76
2022-10-08T20:58:44.668Z,47.11
2022-10-08T21:01:20.474Z,47.26
2022-10-08T21:03:47.639Z,47.02
2022-10-08T21:06:19.541Z,47.17
2022-10-08T21:08:47.784Z,47.25
2022-10-08T21:11:16.544Z,47.09
2022-10-08T21:13:43.680Z,47.15
2022-10-08T21:16:27.990Z,47.03
2022-10-08T21:18:57.206Z,46.90
2022-10-08T21:21:24.920Z,47.06
2022-10-08T21:23:51.673Z,46.75
2022-10-08T21:26:38.956Z,46.90
2022-10-08T21:29:10.542Z,46.68
2022-10-08T21:31:38.406Z,46.67
2022-10-08T21:34:05.665Z,46.64
2022-10-08T21:36:34.994Z,46.53
2022-10-08T21:39:02.368Z,46.82
2022-10-08T21:41:31.127Z,46.49
2022-10-08T21:44:00.086Z,46.34
2022-10-08T21:46:29.455Z,46.50
2022-10-08T21:49:03.954Z,46.47
2022-10-08T21:51:31.953Z,46.32
2022-10-08T21:54:00.352Z,46.69
2022-10-08T21:56:31.221Z,46.56
2022-10-08T21:58:59.784Z,46.34
2022-10-08T22:01:28.924Z,46.59
2022-10-08T22:03:58.638Z,46.75
2022-10-08T22:06:26.328Z,46.80
2022-10-08T22:08:52.895Z,47.04
2022-10-08T22:11:20.399Z,46.92
2022-10-08T22:13:47.594Z,46.84
2022-10-08T22:16:15.224Z,46.38
2022-10-08T22:18:41.818Z,46.62
2022-10-08T22:21:13.046Z,47.07
2022-10-08T22:23:39.721Z,46.88
2022-10-08T22:26:27.577Z,46.90
2022-10-08T22:28:54.540Z,47.05
2022-10-08T22:31:21.189Z,46.65
2022-10-08T22:33:48.494Z,46.96
2022-10-08T22:36:18.006Z,46.79
2022-10-08T22:38:45.378Z,46.66
2022-10-08T22:41:14.180Z,46.60
2022-10-08T22:43:41.515Z,46.97
2022-10-08T22:46:12.065Z,46.76
2022-10-08T22:48:39.463Z,47.16
2022-10-08T22:51:17.386Z,47.09
2022-10-08T22:53:44.608Z,46.82
2022-10-08T22:56:14.368Z,46.82
2022-10-08T22:58:40.957Z,46.99
2022-10-08T23:01:09.966Z,47.24
2022-10-08T23:03:37.099Z,46.89
2022-10-08T23:06:18.853Z,46.96
2022-10-08T23:08:46.747Z,47.00
2022-10-08T23:11:14.986Z,47.04
2022-10-08T23:13:45.521Z,46.86
2022-10-08T23:16:14.307Z,47.17
2022-10-08T23:18:43.037Z,47.06
2022-10-08T23:21:15.573Z,47.13
2022-10-08T23:23:43.649Z,47.15
2022-10-08T23:26:10.283Z,47.00
2022-10-08T23:28:38.093Z,47.26
2022-10-08T23:31:05.697Z,47.17
2022-10-08T23:33:32.348Z,47.30
2022-10-08T23:35:59.128Z,47.20
2022-10-08T23:38:25.707Z,47.33
2022-10-08T23:40:52.277Z,47.35
2022-10-08T23:43:18.936Z,47.39
2022-10-08T23:45:45.673Z,47.29
2022-10-08T23:48:12.331Z,47.06
2022-10-08T23:50:38.925Z,47.22
2022-10-08T23:53:05.582Z,47.36
2022-10-08T23:55:32.137Z,47.04
2022-10-08T23:57:58.720Z,47.00
